LEIB/IBZ METAR and TAF weather

Enter ICAO airport designator
Station Type Date Time Source
LEIB METAR 2019/06/18 13:30 UTC NOAA

LEIB 181330Z 13007KT 080V170 CAVOK 26/16 Q1015 NOSIG


Station Type Date Time Source
LEIB Decoded METAR 2019/06/18 13:30 UTC NOAA

Ibiza / Es Codola, Spain (LEIB) 38-52N 001-23E 12M
Jun 18, 2019 - 09:30 AM EDT / 2019.06.18 1330 UTC
Wind: from the SE (130 degrees) at 8 MPH (7 KT) (direction variable):0
Visibility: greater than 7 mile(s):0
Temperature: 78 F (26 C)
Dew Point: 60 F (16 C)
Relative Humidity: 54%
Pressure (altimeter): 29.97 in. Hg (1015 hPa)
ob: LEIB 181330Z 13007KT 080V170 CAVOK 26/16 Q1015 NOSIG
cycle: 13

Station Type Date Time Source
LEIB TAF 2019/06/18 09:31 UTC NOAA

TAF LEIB 180800Z 1809/1909 13008KT 9999 FEW020 TX25/1812Z TN19/1905Z
BECMG 1821/1823 22008KT PROB30
TEMPO 1823/1906 3000 BR BKN009

Example: see airport list